View Sortable Currents For Network
ASOSAWOSCoCoRaHSCOOPDCPISUSM
SchoolNetOtherSCANMy FavoritesBy StateRWIS
RWIS SurfaceRWIS TrafficRWIS SoilBy NWS WFO
ADD: Station: Ob Time Temps °F     Wind [knots] Precip
Air (Hi / Lo) DewP Feels RH% Vis Speed Direction Gust @Time Accum [1]
Bedford12:10 PM 67.1(67.1/38.48) 38.48 67 35 0.2 11G16 15 18@ 11:10 AM 0
Sigourney Hwy 14912:13 PM 65.7(67.9/44.5) 25.8 66 22 0 13G13 67 25@ 12:00 AM 0
Carroll (US 30)12:20 PM 66.56(66.56/34.52) 34.88 67 31 0 8G15 0 15@ 12:20 PM 0
Waterloo (US 20)12:20 PM 66.92(66.92/44.96) 37.04 67 33 0 3G13 75 13@ 12:10 PM 0
Williams (I-35)12:20 PM 64.58(64.58/40.28) 34.7 65 33 0 0G1 90 8@ 12:10 PM 0
Williamsburg (I-80)12:20 PM 69.08(69.08/45.86) 33.08 69 26 0.1 11G18 25 21@ 12:00 PM 0
Cedar Rapids (US 30)12:20 PM 69.62(69.62/48.56) 33.44 70 26 0.1 8G16 5 19@ 12:00 PM 0
Mason City (I-35)12:20 PM 64.04(64.04/49.46) 43.7 64 48 0.1 6G10 50 10@ 12:20 PM 0
Ames (I-35)12:20 PM 65.84(65.84/40.28) 29.12 66 25 2 7G10 20 12@ 12:10 PM 0
Avoca (I-80)12:20 PM 68.36(68.36/37.76) 49.46 68 51 0.1 9G16 60 16@ 11:50 AM 0
Tipton (I-80)12:20 PM 65.3(65.3/42.08) 34.52 65 32 1.4 10G18 80 18@ 12:20 PM 0
Ida Grove (US 59)12:20 PM 66.38(66.38/31.46) 26.06 66 22 0 5G11 55 11@ 12:20 PM 0
Alton (IA10)12:20 PM 66.92(66.92/38.48) 33.08 67 28 0 5G9 110 13@ 12:10 PM 0
Sibley12:20 PM 63.14(63.32/38.84) 35.24 63 35 0.1 0G6 340 11@ 12:20 AM 0
Quad Cities12:20 PM 62.78(62.78/43.16) 61.34 63 95 0.9 6G13 50 19@ 12:50 AM 0
Sioux City Maintenance12:20 PM (/) 0 0 0 0 0@ 06:00 PM 0
Cambridge I-3512:20 PM (/) 0 0 0 0 361 0@ 06:00 PM 0
Centerville (IA 2)12:20 PM 67.46(67.46/47.66) 34.7 67 30 0 8G15 35 19@ 11:50 AM 0
Colfax - I-8012:20 PM 67.46(67.46/43.88) 32.18 67 27 0 8G15 80 17@ 11:40 AM 0
Rockwell City12:20 PM 63.14(63.14/36.68) 36.14 63 37 0 10G13 55 15@ 11:51 AM 0
Decorah (IA 9)12:20 PM 65.12(65.12/38.84) 31.28 65 28 7.1 6G10 65 10@ 11:30 AM 0
Tama12:20 PM 66.38(66.38/38.66) -64.84 66 0 7.1 12G17 55 19@ 11:20 AM 0
Cantril12:20 PM 66.38(66.74/48.92) 24.08 66 20 0 10G17 0 17@ 11:50 AM 0
Plainfield12:20 PM 64.22(64.22/35.78) 6.98 64 10 7.1 8G12 90 12@ 12:20 PM 0
New Hampton (US 18)12:20 PM 62.42(62.6/35.24) 31.1 62 31 7.1 8G11 5 11@ 12:20 PM 0
Creston (US 34)12:20 PM 66.38(67.46/40.64) 32.36 66 28 0 10G17 65 19@ 11:40 AM 0
Davenport (I-80/I-280)12:20 PM 65.48(65.48/39.02) 30.92 65 27 0 12G19 90 21@ 11:10 AM 0
Des Moines (I-235)12:20 PM 67.28(67.28/48.02) 30.38 67 25 0 0 361 0@ 06:00 PM 0
Algona (US 18)12:20 PM 65.3(65.3/31.1) 38.3 65 37 0 0 361 0@ 06:00 PM 0
Altoona (I-80/US 65)12:20 PM 68(68/46.76) 38.12 68 33 5.4 5G9 35 12@ 12:10 PM 0
Council Bluffs (I-80)12:20 PM 67.1(67.1/42.44) 11.66 67 11 0 6G12 235 12@ 12:20 PM 0
Moville12:20 PM 67.28(68.36/31.1) 31.1 67 26 1.2 8G12 145 12@ 12:20 PM 0
Burlington (US 34)12:20 PM 63.5(63.5/46.94) 41.54 64 45 0 15G18 30 19@ 11:40 AM 0
Elkhart I-35 No212:20 PM (/) 0 0 1.2 0 361 0@ 06:00 PM 0
Council Bluffs No212:20 PM 67.1(67.1/34.16) 26.96 67 22 0 6G10 60 15@ 12:10 PM 0
Elkhart I-35 No112:20 PM (/) 0 0 1.2 0 361 0@ 06:00 PM 0
De Soto (I-80/US 169)12:20 PM 65.3(65.3/43.34) 36.32 65 34 0 9G13 60 13@ 11:50 AM 0
Sigourney (IA 92)12:20 PM (/) 0 0 0 0 5 0@ 06:00 PM 0
Adair (I-80)12:20 PM 68.18(68.18/44.96) 38.3 68 33 0 9G15 55 16@ 12:10 PM 0
Hanlontown (I-35)12:20 PM 62.24(62.24/35.06) 34.7 62 36 4.3 0 5 0@ 06:00 PM 0
Cedar Rapids (I-380)12:20 PM 65.12(65.48/48.2) 28.76 65 25 0 11G16 5 16@ 11:30 AM 0
Storm Lake (US 71/IA 3)12:21 PM 64.22(64.4/31.46) 34.7 64 33 0 6G8 70 8@ 12:21 PM 0
Iowa City (I-80)12:21 PM (/) 0 0 0 0 361 0@ 06:00 PM 0
Fort Dodge (US 20)12:21 PM 63.5(63.86/40.64) 33.98 64 33 4.5 10G14 55 14@ 12:21 PM 0
Mount Pleasant (US 218)12:21 PM 67.64(67.64/47.12) 35.96 68 31 0 3G11 40 17@ 10:21 AM 0
Sloan I-2912:21 PM 67.82(67.82/35.96) 29.84 68 24 0.1 5G9 80 9@ 12:21 PM 0
Pella (IA 163)12:21 PM 68.54(68.54/44.24) 33.08 69 27 0 7G15 45 15@ 12:21 PM 0
Manchester (US 20)12:21 PM 64.4(64.4/39.56) 30.02 64 27 0 9G13 70 16@ 11:01 AM 0
Iowa City (US 218)12:21 PM 64.76(65.66/48.02) 33.8 65 31 0 11G19 60 19@ 12:11 PM 0
Missouri Valley (I-29)12:21 PM 68.9(68.9/35.42) 30.2 69 24 0 10G15 80 15@ 12:21 PM 0
Maquoketa (US 61/IA 64)12:21 PM 65.3(65.3/45.32) 24.26 65 21 7.1 11G17 55 18@ 11:31 AM 0
Leon (I-35)/IA 2)12:21 PM 65.84(65.84/48.56) 33.08 66 29 0.1 9G16 25 19@ 12:01 PM 0
Spencer (US 18)12:21 PM (/) 0 0 1.2 4G5 155 8@ 12:01 PM 0
Jefferson (IA 4)12:21 PM 66.38(66.38/36.68) 35.96 66 32 7.1 9G13 55 13@ 12:21 PM 0
Denison12:22 PM 64.76(64.76/39.74) 26.6 65 23 0.1 11G17 65 17@ 12:22 PM 0
Urbana (I-380)12:22 PM 67.82(69.26/40.1) 31.28 68 26 0.1 5G13 60 17@ 12:02 PM 0
Osceola (I-35)12:22 PM 65.84(66.02/47.3) 36.68 66 34 0 10G16 0 16@ 12:02 PM 0
Ankeny (I-35)12:22 PM 65.66(65.66/43.34) 37.76 66 36 1.2 9G14 5 14@ 12:22 PM 0
Red Oak (US 34/US 71)12:22 PM 68(68/36.14) 35.6 68 30 0 2G8 95 9@ 11:32 AM 0
Ottumwa (US 63)12:22 PM 67.82(67.82/49.1) 36.14 68 31 0.1 8G18 35 19@ 11:52 AM 0
Sidney (I-29/IA 2)12:22 PM 72.68(72.68/39.38) 36.68 73 27 0.1 12G16 65 18@ 12:02 PM 0
Des Moines (I-35)12:23 PM 64.58(64.94/47.66) 29.66 65 27 0 0 25 0@ 06:00 PM 0
Marshalltown (US 30)12:23 PM 65.48(65.48/43.16) 35.96 65 33 0 7G12 30 15@ 11:43 AM 0
Oskaloosa Hwy 9212:24 PM 65.5(65.5/34.5) 0 0 0 14G17 69 23@ 11:45 AM 0
Steamboat Rock (US20)12:24 PM 65.48(65.48/37.4) 33.08 65 30 0 8G13 55 15@ 12:14 PM 0
Dubuque (US 20)12:24 PM 64.76(64.76/43.7) 33.98 65 32 0 2G13 55 16@ 12:14 PM 0


Notes:
1 Not all sites have the ability to measure precip nor visibility.
2 The Iowa City (I-80) RWIS site does not have atmospheric sensors on it , so it is not included on this page.